sensor_id;sensor_type;location;lat;lon;timestamp;P1;durP1;ratioP1;P2;durP2;ratioP2
20144;SDS011;10233;50.814;6.590;2023-07-08T00:00:10;6.10;;;4.03;;
20144;SDS011;10233;50.814;6.590;2023-07-08T00:01:12;6.22;;;3.90;;
20144;SDS011;10233;50.814;6.590;2023-07-08T00:02:15;6.00;;;3.92;;
20144;SDS011;10233;50.814;6.590;2023-07-08T00:03:15;7.90;;;4.00;;
20144;SDS011;10233;50.814;6.590;2023-07-08T00:04:17;6.43;;;4.07;;
20144;SDS011;10233;50.814;6.590;2023-07-08T00:05:18;6.55;;;4.07;;
20144;SDS011;10233;50.814;6.590;2023-07-08T00:06:25;7.05;;;4.00;;
20144;SDS011;10233;50.814;6.590;2023-07-08T00:07:26;5.93;;;4.05;;
20144;SDS011;10233;50.814;6.590;2023-07-08T00:08:27;8.73;;;4.07;;
20144;SDS011;10233;50.814;6.590;2023-07-08T00:09:27;6.57;;;4.20;;
20144;SDS011;10233;50.814;6.590;2023-07-08T00:10:29;7.30;;;4.07;;
20144;SDS011;10233;50.814;6.590;2023-07-08T00:11:29;6.53;;;4.32;;
20144;SDS011;10233;50.814;6.590;2023-07-08T00:12:30;7.77;;;4.20;;
20144;SDS011;10233;50.814;6.590;2023-07-08T00:13:30;7.83;;;3.93;;
20144;SDS011;10233;50.814;6.590;2023-07-08T00:14:30;7.07;;;3.90;;
20144;SDS011;10233;50.814;6.590;2023-07-08T00:15:32;6.03;;;4.18;;
20144;SDS011;10233;50.814;6.590;2023-07-08T00:16:32;8.20;;;4.00;;
20144;SDS011;10233;50.814;6.590;2023-07-08T00:17:34;7.60;;;3.92;;
20144;SDS011;10233;50.814;6.590;2023-07-08T00:18:35;7.50;;;4.00;;
20144;SDS011;10233;50.814;6.590;2023-07-08T00:19:35;7.63;;;4.18;;
20144;SDS011;10233;50.814;6.590;2023-07-08T00:20:36;7.63;;;4.00;;
20144;SDS011;10233;50.814;6.590;2023-07-08T00:21:38;7.18;;;4.10;;
20144;SDS011;10233;50.814;6.590;2023-07-08T00:22:39;6.60;;;4.00;;
20144;SDS011;10233;50.814;6.590;2023-07-08T00:23:44;8.32;;;4.45;;
20144;SDS011;10233;50.814;6.590;2023-07-08T00:24:48;6.00;;;3.88;;
20144;SDS011;10233;50.814;6.590;2023-07-08T00:25:49;7.97;;;4.50;;
20144;SDS011;10233;50.814;6.590;2023-07-08T00:26:49;8.43;;;4.43;;
20144;SDS011;10233;50.814;6.590;2023-07-08T00:27:53;8.13;;;4.50;;
20144;SDS011;10233;50.814;6.590;2023-07-08T00:28:54;6.20;;;3.97;;
20144;SDS011;10233;50.814;6.590;2023-07-08T00:29:55;5.95;;;4.00;;
20144;SDS011;10233;50.814;6.590;2023-07-08T00:30:56;8.97;;;4.00;;
20144;SDS011;10233;50.814;6.590;2023-07-08T00:31:57;6.45;;;3.75;;
20144;SDS011;10233;50.814;6.590;2023-07-08T00:32:58;7.50;;;4.20;;
20144;SDS011;10233;50.814;6.590;2023-07-08T00:33:59;6.75;;;3.70;;
20144;SDS011;10233;50.814;6.590;2023-07-08T00:34:59;7.90;;;4.27;;
20144;SDS011;10233;50.814;6.590;2023-07-08T00:36:00;6.83;;;4.10;;
20144;SDS011;10233;50.814;6.590;2023-07-08T00:37:00;6.95;;;3.97;;
20144;SDS011;10233;50.814;6.590;2023-07-08T00:39:29;7.60;;;4.13;;
20144;SDS011;10233;50.814;6.590;2023-07-08T00:40:30;7.32;;;4.55;;
20144;SDS011;10233;50.814;6.590;2023-07-08T00:42:41;6.07;;;3.90;;
20144;SDS011;10233;50.814;6.590;2023-07-08T00:43:46;8.77;;;3.83;;
20144;SDS011;10233;50.814;6.590;2023-07-08T00:44:48;9.05;;;4.63;;
20144;SDS011;10233;50.814;6.590;2023-07-08T00:45:49;7.63;;;4.10;;
20144;SDS011;10233;50.814;6.590;2023-07-08T00:48:15;7.70;;;4.35;;
20144;SDS011;10233;50.814;6.590;2023-07-08T00:50:23;7.33;;;4.00;;
20144;SDS011;10233;50.814;6.590;2023-07-08T00:51:23;7.27;;;4.20;;
20144;SDS011;10233;50.814;6.590;2023-07-08T00:52:28;7.50;;;4.10;;
20144;SDS011;10233;50.814;6.590;2023-07-08T00:53:33;7.78;;;4.45;;
20144;SDS011;10233;50.814;6.590;2023-07-08T00:54:35;6.45;;;4.07;;
20144;SDS011;10233;50.814;6.590;2023-07-08T00:55:35;9.60;;;4.37;;
20144;SDS011;10233;50.814;6.590;2023-07-08T00:57:43;9.55;;;4.40;;
20144;SDS011;10233;50.814;6.590;2023-07-08T00:58:48;8.10;;;4.43;;
20144;SDS011;10233;50.814;6.590;2023-07-08T00:59:58;8.03;;;4.60;;
20144;SDS011;10233;50.814;6.590;2023-07-08T01:01:04;9.93;;;4.28;;
20144;SDS011;10233;50.814;6.590;2023-07-08T01:02:07;8.63;;;4.18;;
20144;SDS011;10233;50.814;6.590;2023-07-08T01:03:11;8.40;;;4.30;;
20144;SDS011;10233;50.814;6.590;2023-07-08T01:04:13;6.97;;;4.47;;
20144;SDS011;10233;50.814;6.590;2023-07-08T01:05:18;8.07;;;4.00;;
20144;SDS011;10233;50.814;6.590;2023-07-08T01:06:22;7.43;;;4.37;;
20144;SDS011;10233;50.814;6.590;2023-07-08T01:07:31;7.22;;;4.30;;
20144;SDS011;10233;50.814;6.590;2023-07-08T01:08:33;6.75;;;4.30;;
20144;SDS011;10233;50.814;6.590;2023-07-08T01:09:34;9.30;;;4.47;;
20144;SDS011;10233;50.814;6.590;2023-07-08T01:10:40;7.82;;;4.30;;
20144;SDS011;10233;50.814;6.590;2023-07-08T01:11:46;8.77;;;4.60;;
20144;SDS011;10233;50.814;6.590;2023-07-08T01:12:47;6.77;;;4.20;;
20144;SDS011;10233;50.814;6.590;2023-07-08T01:13:51;7.65;;;4.45;;
20144;SDS011;10233;50.814;6.590;2023-07-08T01:14:53;7.95;;;4.38;;
20144;SDS011;10233;50.814;6.590;2023-07-08T01:15:55;8.27;;;4.90;;
20144;SDS011;10233;50.814;6.590;2023-07-08T01:16:56;10.18;;;4.80;;
20144;SDS011;10233;50.814;6.590;2023-07-08T01:17:57;7.72;;;4.53;;
20144;SDS011;10233;50.814;6.590;2023-07-08T01:18:58;9.33;;;4.73;;
20144;SDS011;10233;50.814;6.590;2023-07-08T01:19:59;7.93;;;4.72;;
20144;SDS011;10233;50.814;6.590;2023-07-08T01:21:02;10.43;;;4.87;;
20144;SDS011;10233;50.814;6.590;2023-07-08T01:22:07;8.73;;;4.77;;
20144;SDS011;10233;50.814;6.590;2023-07-08T01:23:11;8.57;;;4.53;;
20144;SDS011;10233;50.814;6.590;2023-07-08T01:24:12;9.40;;;4.65;;
20144;SDS011;10233;50.814;6.590;2023-07-08T01:25:14;7.47;;;4.57;;
20144;SDS011;10233;50.814;6.590;2023-07-08T01:26:14;9.40;;;4.70;;
20144;SDS011;10233;50.814;6.590;2023-07-08T01:27:16;9.27;;;5.03;;
20144;SDS011;10233;50.814;6.590;2023-07-08T01:28:19;8.55;;;4.60;;
20144;SDS011;10233;50.814;6.590;2023-07-08T01:29:22;8.43;;;4.85;;
20144;SDS011;10233;50.814;6.590;2023-07-08T01:30:22;8.30;;;4.72;;
20144;SDS011;10233;50.814;6.590;2023-07-08T01:31:23;8.93;;;4.47;;
20144;SDS011;10233;50.814;6.590;2023-07-08T01:32:24;7.88;;;4.22;;
20144;SDS011;10233;50.814;6.590;2023-07-08T01:33:25;7.60;;;4.80;;
20144;SDS011;10233;50.814;6.590;2023-07-08T01:34:26;8.63;;;5.05;;
20144;SDS011;10233;50.814;6.590;2023-07-08T01:35:28;9.82;;;5.10;;
20144;SDS011;10233;50.814;6.590;2023-07-08T01:36:29;9.68;;;5.30;;
20144;SDS011;10233;50.814;6.590;2023-07-08T01:37:37;10.15;;;5.03;;
20144;SDS011;10233;50.814;6.590;2023-07-08T01:39:01;8.73;;;4.88;;
20144;SDS011;10233;50.814;6.590;2023-07-08T01:41:21;9.07;;;4.90;;
20144;SDS011;10233;50.814;6.590;2023-07-08T01:42:21;8.45;;;5.32;;
20144;SDS011;10233;50.814;6.590;2023-07-08T01:43:22;9.23;;;4.97;;
20144;SDS011;10233;50.814;6.590;2023-07-08T01:45:38;8.05;;;4.75;;
20144;SDS011;10233;50.814;6.590;2023-07-08T01:46:41;8.03;;;4.93;;
20144;SDS011;10233;50.814;6.590;2023-07-08T01:47:42;8.13;;;4.38;;
20144;SDS011;10233;50.814;6.590;2023-07-08T01:48:57;10.13;;;5.53;;
20144;SDS011;10233;50.814;6.590;2023-07-08T01:50:00;9.48;;;5.15;;
20144;SDS011;10233;50.814;6.590;2023-07-08T01:51:04;8.82;;;4.93;;
20144;SDS011;10233;50.814;6.590;2023-07-08T01:52:06;8.75;;;4.85;;
20144;SDS011;10233;50.814;6.590;2023-07-08T01:53:12;9.95;;;5.13;;
20144;SDS011;10233;50.814;6.590;2023-07-08T01:54:29;8.85;;;5.13;;
20144;SDS011;10233;50.814;6.590;2023-07-08T01:55:29;10.87;;;5.10;;
20144;SDS011;10233;50.814;6.590;2023-07-08T01:56:31;9.02;;;5.10;;
20144;SDS011;10233;50.814;6.590;2023-07-08T01:57:31;9.55;;;4.80;;
20144;SDS011;10233;50.814;6.590;2023-07-08T01:58:32;9.30;;;4.75;;
20144;SDS011;10233;50.814;6.590;2023-07-08T01:59:33;8.87;;;5.17;;
20144;SDS011;10233;50.814;6.590;2023-07-08T02:00:33;10.00;;;4.72;;
20144;SDS011;10233;50.814;6.590;2023-07-08T02:01:35;10.82;;;5.38;;
20144;SDS011;10233;50.814;6.590;2023-07-08T02:02:35;10.13;;;4.73;;
20144;SDS011;10233;50.814;6.590;2023-07-08T02:03:36;9.02;;;4.97;;
20144;SDS011;10233;50.814;6.590;2023-07-08T02:04:36;9.53;;;5.20;;
20144;SDS011;10233;50.814;6.590;2023-07-08T02:05:37;8.18;;;4.72;;
20144;SDS011;10233;50.814;6.590;2023-07-08T02:06:37;10.73;;;5.07;;
20144;SDS011;10233;50.814;6.590;2023-07-08T02:07:40;10.93;;;5.38;;
20144;SDS011;10233;50.814;6.590;2023-07-08T02:08:41;9.25;;;5.43;;
20144;SDS011;10233;50.814;6.590;2023-07-08T02:09:41;9.17;;;4.93;;
20144;SDS011;10233;50.814;6.590;2023-07-08T02:10:42;9.83;;;5.10;;
20144;SDS011;10233;50.814;6.590;2023-07-08T02:11:44;9.43;;;5.40;;
20144;SDS011;10233;50.814;6.590;2023-07-08T02:12:44;8.87;;;4.87;;
20144;SDS011;10233;50.814;6.590;2023-07-08T02:13:44;9.80;;;5.35;;
20144;SDS011;10233;50.814;6.590;2023-07-08T02:14:45;10.33;;;5.50;;
20144;SDS011;10233;50.814;6.590;2023-07-08T02:15:45;8.07;;;4.90;;
20144;SDS011;10233;50.814;6.590;2023-07-08T02:16:46;8.50;;;4.97;;
20144;SDS011;10233;50.814;6.590;2023-07-08T02:17:47;9.33;;;5.20;;
20144;SDS011;10233;50.814;6.590;2023-07-08T02:18:48;9.35;;;5.00;;
20144;SDS011;10233;50.814;6.590;2023-07-08T02:19:48;9.50;;;5.50;;
20144;SDS011;10233;50.814;6.590;2023-07-08T02:20:50;9.65;;;5.53;;
20144;SDS011;10233;50.814;6.590;2023-07-08T02:21:51;9.37;;;5.43;;
20144;SDS011;10233;50.814;6.590;2023-07-08T02:22:55;11.98;;;5.30;;
20144;SDS011;10233;50.814;6.590;2023-07-08T02:23:56;10.30;;;5.43;;
20144;SDS011;10233;50.814;6.590;2023-07-08T02:24:57;11.07;;;5.15;;
20144;SDS011;10233;50.814;6.590;2023-07-08T02:25:58;9.43;;;5.18;;
20144;SDS011;10233;50.814;6.590;2023-07-08T02:26:58;8.45;;;4.72;;
20144;SDS011;10233;50.814;6.590;2023-07-08T02:27:59;10.10;;;5.20;;
20144;SDS011;10233;50.814;6.590;2023-07-08T02:29:00;11.10;;;5.45;;
20144;SDS011;10233;50.814;6.590;2023-07-08T02:30:01;9.80;;;5.30;;
20144;SDS011;10233;50.814;6.590;2023-07-08T02:31:02;10.63;;;5.88;;
20144;SDS011;10233;50.814;6.590;2023-07-08T02:32:03;10.80;;;5.38;;
20144;SDS011;10233;50.814;6.590;2023-07-08T02:33:04;8.90;;;5.22;;
20144;SDS011;10233;50.814;6.590;2023-07-08T02:34:04;13.25;;;5.65;;
20144;SDS011;10233;50.814;6.590;2023-07-08T02:35:05;8.73;;;5.00;;
20144;SDS011;10233;50.814;6.590;2023-07-08T02:36:07;9.13;;;5.10;;
20144;SDS011;10233;50.814;6.590;2023-07-08T02:37:07;9.38;;;5.35;;
20144;SDS011;10233;50.814;6.590;2023-07-08T02:38:08;9.13;;;5.30;;
20144;SDS011;10233;50.814;6.590;2023-07-08T02:39:09;10.60;;;5.18;;
20144;SDS011;10233;50.814;6.590;2023-07-08T02:40:10;9.23;;;5.30;;
20144;SDS011;10233;50.814;6.590;2023-07-08T02:41:11;10.50;;;5.40;;
20144;SDS011;10233;50.814;6.590;2023-07-08T02:42:11;9.43;;;5.33;;
20144;SDS011;10233;50.814;6.590;2023-07-08T02:43:12;9.83;;;5.47;;
20144;SDS011;10233;50.814;6.590;2023-07-08T02:44:12;9.13;;;5.15;;
20144;SDS011;10233;50.814;6.590;2023-07-08T02:45:13;8.87;;;5.27;;
20144;SDS011;10233;50.814;6.590;2023-07-08T02:46:13;11.57;;;5.10;;
20144;SDS011;10233;50.814;6.590;2023-07-08T02:47:14;10.57;;;5.70;;
20144;SDS011;10233;50.814;6.590;2023-07-08T02:48:14;8.95;;;4.93;;
20144;SDS011;10233;50.814;6.590;2023-07-08T02:49:15;8.33;;;5.10;;
20144;SDS011;10233;50.814;6.590;2023-07-08T02:50:15;9.40;;;5.30;;
20144;SDS011;10233;50.814;6.590;2023-07-08T02:51:17;10.65;;;5.40;;
20144;SDS011;10233;50.814;6.590;2023-07-08T02:52:17;10.47;;;5.50;;
20144;SDS011;10233;50.814;6.590;2023-07-08T02:53:18;10.43;;;5.30;;
20144;SDS011;10233;50.814;6.590;2023-07-08T02:54:18;13.45;;;5.28;;
20144;SDS011;10233;50.814;6.590;2023-07-08T02:55:18;10.30;;;5.40;;
20144;SDS011;10233;50.814;6.590;2023-07-08T02:56:19;10.30;;;5.15;;
20144;SDS011;10233;50.814;6.590;2023-07-08T02:57:21;11.23;;;5.00;;
20144;SDS011;10233;50.814;6.590;2023-07-08T02:58:21;9.57;;;4.97;;
20144;SDS011;10233;50.814;6.590;2023-07-08T02:59:22;8.57;;;5.07;;
20144;SDS011;10233;50.814;6.590;2023-07-08T03:00:23;10.57;;;5.43;;
20144;SDS011;10233;50.814;6.590;2023-07-08T03:01:24;10.73;;;4.95;;
20144;SDS011;10233;50.814;6.590;2023-07-08T03:02:26;9.75;;;5.00;;
20144;SDS011;10233;50.814;6.590;2023-07-08T03:03:27;9.40;;;5.43;;
20144;SDS011;10233;50.814;6.590;2023-07-08T03:04:31;10.68;;;5.63;;
20144;SDS011;10233;50.814;6.590;2023-07-08T03:05:32;8.88;;;5.32;;
20144;SDS011;10233;50.814;6.590;2023-07-08T03:06:33;9.93;;;5.40;;
20144;SDS011;10233;50.814;6.590;2023-07-08T03:07:33;10.05;;;5.43;;
20144;SDS011;10233;50.814;6.590;2023-07-08T03:08:33;10.93;;;5.47;;
20144;SDS011;10233;50.814;6.590;2023-07-08T03:09:34;10.33;;;5.60;;
20144;SDS011;10233;50.814;6.590;2023-07-08T03:10:34;9.30;;;5.30;;
20144;SDS011;10233;50.814;6.590;2023-07-08T03:11:35;10.73;;;5.60;;
20144;SDS011;10233;50.814;6.590;2023-07-08T03:12:36;11.35;;;5.63;;
20144;SDS011;10233;50.814;6.590;2023-07-08T03:13:36;10.93;;;5.60;;
20144;SDS011;10233;50.814;6.590;2023-07-08T03:14:38;8.98;;;4.95;;
20144;SDS011;10233;50.814;6.590;2023-07-08T03:15:38;16.37;;;12.60;;
20144;SDS011;10233;50.814;6.590;2023-07-08T03:16:38;10.73;;;5.67;;
20144;SDS011;10233;50.814;6.590;2023-07-08T03:17:39;10.35;;;5.82;;
20144;SDS011;10233;50.814;6.590;2023-07-08T03:18:41;9.82;;;5.30;;
20144;SDS011;10233;50.814;6.590;2023-07-08T03:19:48;9.60;;;5.25;;
20144;SDS011;10233;50.814;6.590;2023-07-08T03:20:49;10.27;;;5.40;;
20144;SDS011;10233;50.814;6.590;2023-07-08T03:21:50;9.00;;;5.15;;
20144;SDS011;10233;50.814;6.590;2023-07-08T03:22:50;8.55;;;4.93;;
20144;SDS011;10233;50.814;6.590;2023-07-08T03:23:51;11.43;;;5.40;;
20144;SDS011;10233;50.814;6.590;2023-07-08T03:24:52;8.68;;;5.32;;
20144;SDS011;10233;50.814;6.590;2023-07-08T03:25:55;9.73;;;5.80;;
20144;SDS011;10233;50.814;6.590;2023-07-08T03:26:57;8.95;;;5.22;;
20144;SDS011;10233;50.814;6.590;2023-07-08T03:28:00;9.27;;;5.18;;
20144;SDS011;10233;50.814;6.590;2023-07-08T03:29:00;12.07;;;5.50;;
20144;SDS011;10233;50.814;6.590;2023-07-08T03:30:02;9.82;;;5.53;;
20144;SDS011;10233;50.814;6.590;2023-07-08T03:31:10;10.70;;;5.57;;
20144;SDS011;10233;50.814;6.590;2023-07-08T03:32:12;11.45;;;5.47;;
20144;SDS011;10233;50.814;6.590;2023-07-08T03:33:13;11.10;;;5.73;;
20144;SDS011;10233;50.814;6.590;2023-07-08T03:34:15;9.98;;;5.28;;
20144;SDS011;10233;50.814;6.590;2023-07-08T03:35:17;9.02;;;5.32;;
20144;SDS011;10233;50.814;6.590;2023-07-08T03:36:17;9.37;;;5.40;;
20144;SDS011;10233;50.814;6.590;2023-07-08T03:37:25;8.90;;;5.03;;
20144;SDS011;10233;50.814;6.590;2023-07-08T03:38:25;9.10;;;5.00;;
20144;SDS011;10233;50.814;6.590;2023-07-08T03:39:26;9.77;;;5.22;;
20144;SDS011;10233;50.814;6.590;2023-07-08T03:40:26;9.67;;;5.50;;
20144;SDS011;10233;50.814;6.590;2023-07-08T03:41:27;10.75;;;5.30;;
20144;SDS011;10233;50.814;6.590;2023-07-08T03:42:28;10.00;;;5.47;;
20144;SDS011;10233;50.814;6.590;2023-07-08T03:43:29;10.63;;;5.13;;
20144;SDS011;10233;50.814;6.590;2023-07-08T03:44:29;9.80;;;5.30;;
20144;SDS011;10233;50.814;6.590;2023-07-08T03:45:30;10.25;;;5.63;;
20144;SDS011;10233;50.814;6.590;2023-07-08T03:46:31;10.52;;;5.50;;
20144;SDS011;10233;50.814;6.590;2023-07-08T03:47:32;9.67;;;5.53;;
20144;SDS011;10233;50.814;6.590;2023-07-08T03:48:33;10.85;;;5.45;;
20144;SDS011;10233;50.814;6.590;2023-07-08T03:49:34;10.43;;;5.68;;
20144;SDS011;10233;50.814;6.590;2023-07-08T03:50:34;10.20;;;5.73;;
20144;SDS011;10233;50.814;6.590;2023-07-08T03:51:36;9.45;;;5.05;;
20144;SDS011;10233;50.814;6.590;2023-07-08T03:52:38;9.98;;;5.82;;
20144;SDS011;10233;50.814;6.590;2023-07-08T03:53:39;10.93;;;5.47;;
20144;SDS011;10233;50.814;6.590;2023-07-08T03:54:39;11.07;;;5.85;;
20144;SDS011;10233;50.814;6.590;2023-07-08T03:55:41;9.80;;;5.60;;
20144;SDS011;10233;50.814;6.590;2023-07-08T03:56:43;9.40;;;5.72;;
20144;SDS011;10233;50.814;6.590;2023-07-08T03:57:44;11.35;;;5.57;;
20144;SDS011;10233;50.814;6.590;2023-07-08T03:58:44;10.20;;;5.57;;
20144;SDS011;10233;50.814;6.590;2023-07-08T03:59:46;10.07;;;5.60;;
20144;SDS011;10233;50.814;6.590;2023-07-08T04:00:47;9.73;;;5.68;;
20144;SDS011;10233;50.814;6.590;2023-07-08T04:01:47;11.43;;;5.43;;
20144;SDS011;10233;50.814;6.590;2023-07-08T04:02:48;10.50;;;5.10;;
20144;SDS011;10233;50.814;6.590;2023-07-08T04:03:54;11.45;;;5.45;;
20144;SDS011;10233;50.814;6.590;2023-07-08T04:04:56;9.20;;;5.32;;
20144;SDS011;10233;50.814;6.590;2023-07-08T04:05:57;9.47;;;5.50;;
20144;SDS011;10233;50.814;6.590;2023-07-08T04:06:57;9.52;;;5.57;;
20144;SDS011;10233;50.814;6.590;2023-07-08T04:07:58;9.90;;;5.40;;
20144;SDS011;10233;50.814;6.590;2023-07-08T04:08:59;10.50;;;5.57;;
20144;SDS011;10233;50.814;6.590;2023-07-08T04:10:00;10.13;;;5.57;;
20144;SDS011;10233;50.814;6.590;2023-07-08T04:11:00;10.35;;;5.30;;
20144;SDS011;10233;50.814;6.590;2023-07-08T04:12:01;10.00;;;5.33;;
20144;SDS011;10233;50.814;6.590;2023-07-08T04:13:01;10.13;;;5.60;;
20144;SDS011;10233;50.814;6.590;2023-07-08T04:14:02;10.40;;;5.50;;
20144;SDS011;10233;50.814;6.590;2023-07-08T04:15:03;9.47;;;5.30;;
20144;SDS011;10233;50.814;6.590;2023-07-08T04:16:04;10.43;;;5.60;;
20144;SDS011;10233;50.814;6.590;2023-07-08T04:17:06;10.15;;;5.78;;
20144;SDS011;10233;50.814;6.590;2023-07-08T04:18:07;12.10;;;5.60;;
20144;SDS011;10233;50.814;6.590;2023-07-08T04:19:07;12.80;;;5.83;;
20144;SDS011;10233;50.814;6.590;2023-07-08T04:20:15;9.85;;;5.32;;
20144;SDS011;10233;50.814;6.590;2023-07-08T04:21:18;12.30;;;6.20;;
20144;SDS011;10233;50.814;6.590;2023-07-08T04:22:19;11.80;;;6.03;;
20144;SDS011;10233;50.814;6.590;2023-07-08T04:23:20;10.90;;;5.50;;
20144;SDS011;10233;50.814;6.590;2023-07-08T04:24:21;9.23;;;5.43;;
20144;SDS011;10233;50.814;6.590;2023-07-08T04:25:21;9.83;;;5.17;;
20144;SDS011;10233;50.814;6.590;2023-07-08T04:26:24;11.70;;;5.85;;
20144;SDS011;10233;50.814;6.590;2023-07-08T04:27:25;10.70;;;5.63;;
20144;SDS011;10233;50.814;6.590;2023-07-08T04:28:25;11.90;;;5.67;;
20144;SDS011;10233;50.814;6.590;2023-07-08T04:29:27;11.13;;;5.78;;
20144;SDS011;10233;50.814;6.590;2023-07-08T04:30:27;12.70;;;6.05;;
20144;SDS011;10233;50.814;6.590;2023-07-08T04:31:28;10.93;;;5.97;;
20144;SDS011;10233;50.814;6.590;2023-07-08T04:32:28;9.50;;;5.80;;
20144;SDS011;10233;50.814;6.590;2023-07-08T04:33:29;10.70;;;6.10;;
20144;SDS011;10233;50.814;6.590;2023-07-08T04:34:30;11.55;;;5.97;;
20144;SDS011;10233;50.814;6.590;2023-07-08T04:35:31;8.97;;;5.10;;
20144;SDS011;10233;50.814;6.590;2023-07-08T04:36:31;11.93;;;6.23;;
20144;SDS011;10233;50.814;6.590;2023-07-08T04:37:32;11.95;;;5.78;;
20144;SDS011;10233;50.814;6.590;2023-07-08T04:38:32;11.50;;;6.17;;
20144;SDS011;10233;50.814;6.590;2023-07-08T04:39:36;10.95;;;5.53;;
20144;SDS011;10233;50.814;6.590;2023-07-08T04:40:37;10.20;;;5.83;;
20144;SDS011;10233;50.814;6.590;2023-07-08T04:41:40;10.77;;;6.20;;
20144;SDS011;10233;50.814;6.590;2023-07-08T04:42:41;10.30;;;5.65;;
20144;SDS011;10233;50.814;6.590;2023-07-08T04:43:42;11.65;;;6.00;;
20144;SDS011;10233;50.814;6.590;2023-07-08T04:44:42;11.50;;;6.13;;
20144;SDS011;10233;50.814;6.590;2023-07-08T04:45:44;10.18;;;5.47;;
20144;SDS011;10233;50.814;6.590;2023-07-08T04:46:51;11.88;;;6.10;;
20144;SDS011;10233;50.814;6.590;2023-07-08T04:47:54;9.80;;;5.43;;
20144;SDS011;10233;50.814;6.590;2023-07-08T04:48:55;11.23;;;5.90;;
20144;SDS011;10233;50.814;6.590;2023-07-08T04:49:55;10.43;;;5.63;;
20144;SDS011;10233;50.814;6.590;2023-07-08T04:50:56;12.00;;;5.80;;
20144;SDS011;10233;50.814;6.590;2023-07-08T04:51:57;10.80;;;5.82;;
20144;SDS011;10233;50.814;6.590;2023-07-08T04:53:01;11.88;;;6.10;;
20144;SDS011;10233;50.814;6.590;2023-07-08T04:54:02;10.53;;;5.83;;
20144;SDS011;10233;50.814;6.590;2023-07-08T04:55:03;12.32;;;6.50;;
20144;SDS011;10233;50.814;6.590;2023-07-08T04:56:04;10.98;;;6.45;;
20144;SDS011;10233;50.814;6.590;2023-07-08T04:57:04;9.63;;;5.90;;
20144;SDS011;10233;50.814;6.590;2023-07-08T04:58:05;11.55;;;5.97;;
20144;SDS011;10233;50.814;6.590;2023-07-08T04:59:07;11.10;;;5.80;;
20144;SDS011;10233;50.814;6.590;2023-07-08T05:00:11;10.35;;;5.68;;
20144;SDS011;10233;50.814;6.590;2023-07-08T05:01:17;8.88;;;5.95;;
20144;SDS011;10233;50.814;6.590;2023-07-08T05:02:17;10.88;;;6.22;;
20144;SDS011;10233;50.814;6.590;2023-07-08T05:03:18;12.97;;;6.30;;
20144;SDS011;10233;50.814;6.590;2023-07-08T05:04:18;11.67;;;6.03;;
20144;SDS011;10233;50.814;6.590;2023-07-08T05:05:20;10.20;;;6.00;;
20144;SDS011;10233;50.814;6.590;2023-07-08T05:06:21;11.00;;;5.90;;
20144;SDS011;10233;50.814;6.590;2023-07-08T05:07:21;9.90;;;6.10;;
20144;SDS011;10233;50.814;6.590;2023-07-08T05:08:22;11.95;;;6.13;;
20144;SDS011;10233;50.814;6.590;2023-07-08T05:09:22;10.27;;;5.37;;
20144;SDS011;10233;50.814;6.590;2023-07-08T05:10:25;12.00;;;6.18;;
20144;SDS011;10233;50.814;6.590;2023-07-08T05:11:26;10.93;;;5.85;;
20144;SDS011;10233;50.814;6.590;2023-07-08T05:12:27;11.35;;;6.22;;
20144;SDS011;10233;50.814;6.590;2023-07-08T05:13:27;11.48;;;5.70;;
20144;SDS011;10233;50.814;6.590;2023-07-08T05:14:28;11.90;;;5.93;;
20144;SDS011;10233;50.814;6.590;2023-07-08T05:15:28;11.90;;;6.00;;
20144;SDS011;10233;50.814;6.590;2023-07-08T05:16:29;10.52;;;5.95;;
20144;SDS011;10233;50.814;6.590;2023-07-08T05:17:29;10.40;;;5.60;;
20144;SDS011;10233;50.814;6.590;2023-07-08T05:18:30;12.23;;;6.07;;
20144;SDS011;10233;50.814;6.590;2023-07-08T05:19:30;12.23;;;5.87;;
20144;SDS011;10233;50.814;6.590;2023-07-08T05:20:31;10.37;;;5.97;;
20144;SDS011;10233;50.814;6.590;2023-07-08T05:21:33;8.68;;;5.57;;
20144;SDS011;10233;50.814;6.590;2023-07-08T05:22:34;10.40;;;6.00;;
20144;SDS011;10233;50.814;6.590;2023-07-08T05:23:35;11.33;;;5.63;;
20144;SDS011;10233;50.814;6.590;2023-07-08T05:24:36;10.90;;;5.88;;
20144;SDS011;10233;50.814;6.590;2023-07-08T05:25:37;10.40;;;5.70;;
20144;SDS011;10233;50.814;6.590;2023-07-08T05:26:38;14.20;;;6.10;;
20144;SDS011;10233;50.814;6.590;2023-07-08T05:27:38;10.17;;;5.40;;
20144;SDS011;10233;50.814;6.590;2023-07-08T05:28:39;11.63;;;6.00;;
20144;SDS011;10233;50.814;6.590;2023-07-08T05:29:39;10.38;;;5.57;;
20144;SDS011;10233;50.814;6.590;2023-07-08T05:30:40;12.97;;;5.87;;
20144;SDS011;10233;50.814;6.590;2023-07-08T05:31:41;15.30;;;6.15;;
20144;SDS011;10233;50.814;6.590;2023-07-08T05:32:41;10.47;;;5.87;;
20144;SDS011;10233;50.814;6.590;2023-07-08T05:33:42;10.93;;;5.88;;
20144;SDS011;10233;50.814;6.590;2023-07-08T05:34:43;9.13;;;5.53;;
20144;SDS011;10233;50.814;6.590;2023-07-08T05:35:45;10.65;;;6.07;;
20144;SDS011;10233;50.814;6.590;2023-07-08T05:36:45;20.38;;;7.25;;
20144;SDS011;10233;50.814;6.590;2023-07-08T05:37:46;11.63;;;6.10;;
20144;SDS011;10233;50.814;6.590;2023-07-08T05:38:47;10.98;;;6.00;;
20144;SDS011;10233;50.814;6.590;2023-07-08T05:39:48;12.50;;;5.82;;
20144;SDS011;10233;50.814;6.590;2023-07-08T05:40:53;10.13;;;5.57;;
20144;SDS011;10233;50.814;6.590;2023-07-08T05:41:55;10.07;;;5.93;;
20144;SDS011;10233;50.814;6.590;2023-07-08T05:42:56;9.40;;;5.80;;
20144;SDS011;10233;50.814;6.590;2023-07-08T05:43:56;10.43;;;5.22;;
20144;SDS011;10233;50.814;6.590;2023-07-08T05:44:57;12.05;;;5.45;;
20144;SDS011;10233;50.814;6.590;2023-07-08T05:45:58;15.83;;;6.63;;
20144;SDS011;10233;50.814;6.590;2023-07-08T05:47:00;11.75;;;5.80;;
20144;SDS011;10233;50.814;6.590;2023-07-08T05:48:01;8.83;;;5.33;;
20144;SDS011;10233;50.814;6.590;2023-07-08T05:49:02;9.50;;;5.47;;
20144;SDS011;10233;50.814;6.590;2023-07-08T05:50:02;12.48;;;6.43;;
20144;SDS011;10233;50.814;6.590;2023-07-08T05:51:03;9.60;;;5.72;;
20144;SDS011;10233;50.814;6.590;2023-07-08T05:52:04;14.73;;;6.75;;
20144;SDS011;10233;50.814;6.590;2023-07-08T05:53:10;13.52;;;6.30;;
20144;SDS011;10233;50.814;6.590;2023-07-08T05:54:11;17.02;;;6.30;;
20144;SDS011;10233;50.814;6.590;2023-07-08T05:55:12;11.80;;;5.60;;
20144;SDS011;10233;50.814;6.590;2023-07-08T05:56:12;10.77;;;5.68;;
20144;SDS011;10233;50.814;6.590;2023-07-08T05:57:13;22.63;;;6.97;;
20144;SDS011;10233;50.814;6.590;2023-07-08T05:58:13;28.80;;;7.57;;
20144;SDS011;10233;50.814;6.590;2023-07-08T05:59:15;17.42;;;6.72;;
20144;SDS011;10233;50.814;6.590;2023-07-08T06:00:16;17.87;;;6.67;;
20144;SDS011;10233;50.814;6.590;2023-07-08T06:01:16;16.45;;;6.22;;
20144;SDS011;10233;50.814;6.590;2023-07-08T06:02:17;14.57;;;6.43;;
20144;SDS011;10233;50.814;6.590;2023-07-08T06:03:19;16.90;;;6.20;;
20144;SDS011;10233;50.814;6.590;2023-07-08T06:04:20;13.15;;;6.15;;
20144;SDS011;10233;50.814;6.590;2023-07-08T06:05:22;16.73;;;6.55;;
20144;SDS011;10233;50.814;6.590;2023-07-08T06:06:22;12.20;;;6.13;;
20144;SDS011;10233;50.814;6.590;2023-07-08T06:07:22;18.63;;;5.93;;
20144;SDS011;10233;50.814;6.590;2023-07-08T06:08:23;13.67;;;6.20;;
20144;SDS011;10233;50.814;6.590;2023-07-08T06:09:23;16.02;;;6.22;;
20144;SDS011;10233;50.814;6.590;2023-07-08T06:10:24;14.33;;;5.60;;
20144;SDS011;10233;50.814;6.590;2023-07-08T06:11:24;12.47;;;5.80;;
20144;SDS011;10233;50.814;6.590;2023-07-08T06:12:25;11.23;;;5.55;;
20144;SDS011;10233;50.814;6.590;2023-07-08T06:13:26;11.83;;;5.30;;
20144;SDS011;10233;50.814;6.590;2023-07-08T06:14:26;19.00;;;6.13;;
20144;SDS011;10233;50.814;6.590;2023-07-08T06:15:28;15.80;;;5.95;;
20144;SDS011;10233;50.814;6.590;2023-07-08T06:16:28;11.07;;;5.60;;